Time;durP1;ratioP1;P1;durP2;ratioP2;P2;SDS_P1;SDS_P2;PMS_P1;PMS_P2;Temp;Humidity;BMP_temperature;BMP_pressure;BME280_temperature;BME280_humidity;BME280_pressure;Samples;Min_cycle;Max_cycle;Signal;HPM_P1;HPM_P2
2022/03/18 00:02:10;;;;;;;14.27;7.90;;;23.10;30.40;;;;;;6152219;28;80497;-70
2022/03/18 00:05:11;;;;;;;11.45;6.90;;;23.10;30.60;;;;;;6138047;28;80131;-69
2022/03/18 00:08:12;;;;;;;12.70;6.97;;;23.10;30.50;;;;;;6154770;28;80258;-70
2022/03/18 00:11:14;;;;;;;9.50;6.95;;;23.10;30.50;;;;;;6162260;28;80447;-70
2022/03/18 00:14:14;;;;;;;10.95;6.50;;;23.10;30.50;;;;;;6138449;28;80347;-70
2022/03/18 00:17:15;;;;;;;14.48;7.25;;;23.10;30.60;;;;;;6148305;28;80887;-70
2022/03/18 00:20:15;;;;;;;11.60;6.35;;;23.10;30.70;;;;;;6162398;28;80335;-70
2022/03/18 00:23:16;;;;;;;11.80;6.63;;;23.10;30.50;;;;;;6155129;28;80750;-70
2022/03/18 00:26:16;;;;;;;17.58;6.38;;;23.10;30.30;;;;;;6161414;28;81330;-70
2022/03/18 00:29:17;;;;;;;10.70;6.43;;;23.10;30.60;;;;;;6152203;28;80551;-71
2022/03/18 00:32:17;;;;;;;12.07;6.22;;;23.10;30.80;;;;;;6153523;28;81596;-71
2022/03/18 00:35:19;;;;;;;11.05;6.43;;;23.00;30.60;;;;;;6148813;28;80760;-70
2022/03/18 00:38:20;;;;;;;14.10;6.88;;;23.00;30.70;;;;;;6145622;28;80495;-70
2022/03/18 00:41:20;;;;;;;12.05;7.00;;;23.00;30.50;;;;;;6158859;28;80765;-70
2022/03/18 00:44:25;;;;;;;12.68;6.93;;;23.00;30.70;;;;;;6140225;28;80736;-69
2022/03/18 00:54:05;;;;;;;13.10;7.00;;;23.00;30.50;;;;;;6150315;28;80700;-70
2022/03/18 00:57:06;;;;;;;12.93;6.88;;;22.90;30.40;;;;;;6142084;28;80982;-70
2022/03/18 01:00:06;;;;;;;10.75;6.20;;;23.00;30.60;;;;;;6140959;28;80570;-70
2022/03/18 01:03:07;;;;;;;13.98;7.10;;;22.90;30.50;;;;;;6155671;28;80356;-70
2022/03/18 01:06:08;;;;;;;14.05;7.55;;;22.90;30.20;;;;;;6151139;28;80497;-70
2022/03/18 01:09:08;;;;;;;13.07;7.13;;;22.90;30.00;;;;;;6155342;28;80564;-70
2022/03/18 01:12:09;;;;;;;14.93;7.60;;;22.90;30.10;;;;;;6145536;28;80358;-70
2022/03/18 01:15:10;;;;;;;13.13;6.90;;;22.90;30.10;;;;;;6150140;28;81030;-71
2022/03/18 01:18:10;;;;;;;12.00;6.97;;;22.90;30.20;;;;;;6141765;28;81636;-71
2022/03/18 01:21:11;;;;;;;11.57;6.53;;;22.90;30.40;;;;;;6148977;28;80297;-71
2022/03/18 01:24:11;;;;;;;13.18;7.65;;;22.90;30.30;;;;;;6141321;28;80672;-71
2022/03/18 01:27:12;;;;;;;11.68;6.68;;;22.90;30.30;;;;;;6136867;28;80385;-71
2022/03/18 01:30:13;;;;;;;12.80;7.32;;;22.90;30.30;;;;;;6137359;28;80650;-71
2022/03/18 01:33:14;;;;;;;14.32;6.93;;;22.90;30.50;;;;;;6138374;28;80325;-71
2022/03/18 01:36:15;;;;;;;12.77;6.95;;;22.90;30.30;;;;;;6136888;28;81860;-70
2022/03/18 01:39:15;;;;;;;15.13;6.93;;;22.90;30.40;;;;;;6152819;28;80395;-70
2022/03/18 01:42:16;;;;;;;14.05;7.35;;;22.90;30.40;;;;;;6161380;28;80348;-68
2022/03/18 01:45:17;;;;;;;10.95;6.78;;;22.90;30.80;;;;;;6159144;28;81903;-69
2022/03/18 01:48:18;;;;;;;11.00;6.28;;;22.90;30.50;;;;;;6160721;28;87389;-69
2022/03/18 01:51:19;;;;;;;15.02;7.85;;;22.90;30.80;;;;;;6160825;28;80423;-69
2022/03/18 01:57:39;;;;;;;12.10;7.30;;;22.90;30.70;;;;;;6159799;28;80315;-69
2022/03/18 02:00:39;;;;;;;14.27;7.43;;;22.90;30.50;;;;;;6160311;28;80275;-70
2022/03/18 02:03:40;;;;;;;11.32;7.07;;;22.80;30.70;;;;;;6160671;28;80357;-70
2022/03/18 02:06:40;;;;;;;13.13;6.93;;;22.80;30.40;;;;;;6154176;28;80360;-69
2022/03/18 02:09:41;;;;;;;14.25;7.60;;;22.80;31.00;;;;;;6135955;28;80786;-70
2022/03/18 02:12:41;;;;;;;12.40;7.45;;;22.80;30.50;;;;;;6136167;28;80382;-70
2022/03/18 02:15:42;;;;;;;12.35;7.00;;;22.80;30.70;;;;;;6142874;28;80628;-70
2022/03/18 02:18:43;;;;;;;14.02;7.15;;;22.80;30.80;;;;;;6160063;28;80356;-70
2022/03/18 02:21:43;;;;;;;13.70;7.70;;;22.80;31.30;;;;;;6159826;28;80389;-71
2022/03/18 02:24:44;;;;;;;12.68;6.80;;;22.80;31.10;;;;;;6160515;28;80323;-70
2022/03/18 02:27:44;;;;;;;13.48;6.85;;;22.80;30.60;;;;;;6158881;28;80821;-70
2022/03/18 02:30:45;;;;;;;11.93;6.40;;;22.80;30.30;;;;;;6150837;28;81292;-70
2022/03/18 02:33:45;;;;;;;11.38;7.05;;;22.80;30.60;;;;;;6135765;28;80556;-70
2022/03/18 02:36:46;;;;;;;13.98;7.78;;;22.80;30.50;;;;;;6135873;28;80612;-70
2022/03/18 02:39:46;;;;;;;9.88;6.45;;;22.70;30.10;;;;;;6136137;28;80898;-69
2022/03/18 02:42:47;;;;;;;11.55;6.75;;;22.70;30.30;;;;;;6136422;28;81627;-70
2022/03/18 02:45:47;;;;;;;11.00;6.55;;;22.70;30.10;;;;;;6157602;28;82132;-70
2022/03/18 02:48:48;;;;;;;14.35;7.18;;;22.70;30.40;;;;;;6152671;28;80492;-70
2022/03/18 02:51:48;;;;;;;10.75;6.10;;;22.70;30.40;;;;;;6138730;28;80160;-69
2022/03/18 02:54:49;;;;;;;12.55;6.60;;;22.70;30.30;;;;;;6159527;28;80643;-70
2022/03/18 02:57:49;;;;;;;12.90;6.55;;;22.70;30.20;;;;;;6156526;28;80581;-69
2022/03/18 03:00:50;;;;;;;13.60;7.28;;;22.70;30.10;;;;;;6158284;28;81353;-69
2022/03/18 03:03:51;;;;;;;12.20;6.90;;;22.70;30.20;;;;;;6159470;28;80960;-69
2022/03/18 03:10:14;;;;;;;13.52;6.43;;;22.70;30.30;;;;;;6138556;28;81477;-70
2022/03/18 03:13:14;;;;;;;12.43;6.03;;;22.70;30.70;;;;;;6156885;28;80770;-69
2022/03/18 03:16:15;;;;;;;10.93;6.80;;;22.70;30.40;;;;;;6150498;28;80399;-69
2022/03/18 03:19:15;;;;;;;11.68;6.57;;;22.70;30.90;;;;;;6139645;28;80530;-70
2022/03/18 03:22:16;;;;;;;11.77;6.22;;;22.70;30.70;;;;;;6138999;28;80426;-70
2022/03/18 03:25:16;;;;;;;11.23;7.00;;;22.70;30.70;;;;;;6157048;28;80380;-70
2022/03/18 03:28:17;;;;;;;13.25;6.78;;;22.70;30.40;;;;;;6139126;28;80526;-70
2022/03/18 03:31:19;;;;;;;12.95;6.45;;;22.70;30.10;;;;;;6139661;28;80651;-70
2022/03/18 03:34:20;;;;;;;11.88;6.95;;;22.70;31.00;;;;;;6139374;28;80592;-68
2022/03/18 03:37:20;;;;;;;14.60;6.93;;;22.70;30.70;;;;;;6156063;28;80496;-69
2022/03/18 03:40:21;;;;;;;18.23;6.30;;;22.70;30.50;;;;;;6162720;28;81356;-68
2022/03/18 03:43:21;;;;;;;12.70;6.93;;;22.70;30.70;;;;;;6138819;28;82996;-68
2022/03/18 03:46:22;;;;;;;9.13;6.03;;;22.60;30.80;;;;;;6138740;28;80221;-68
2022/03/18 03:49:22;;;;;;;11.32;6.25;;;22.60;30.70;;;;;;6140360;28;86055;-66
2022/03/18 03:52:23;;;;;;;12.60;6.75;;;22.60;30.60;;;;;;6159563;28;80712;-66
2022/03/18 03:55:23;;;;;;;11.23;6.50;;;22.60;30.70;;;;;;6163307;28;80126;-69
2022/03/18 03:58:24;;;;;;;11.68;6.68;;;22.60;30.80;;;;;;6162213;28;80114;-67
2022/03/18 04:01:25;;;;;;;12.88;7.07;;;22.60;30.80;;;;;;6162155;28;81323;-67
2022/03/18 04:04:26;;;;;;;9.57;5.75;;;22.60;30.90;;;;;;6161862;28;81007;-67
2022/03/18 04:07:26;;;;;;;11.45;6.40;;;22.60;30.40;;;;;;6158758;28;80641;-70
2022/03/18 04:10:27;;;;;;;10.98;6.20;;;22.60;30.10;;;;;;6139017;28;80357;-69
2022/03/18 04:13:27;;;;;;;12.98;6.97;;;22.60;30.50;;;;;;6152000;28;80441;-69
2022/03/18 04:16:28;;;;;;;11.30;6.57;;;22.60;29.50;;;;;;6138005;28;82164;-67
2022/03/18 04:19:28;;;;;;;10.55;6.55;;;22.70;30.20;;;;;;6138076;28;80351;-67
2022/03/18 04:22:29;;;;;;;12.80;7.28;;;22.80;30.10;;;;;;6158181;28;80960;-67
2022/03/18 04:25:30;;;;;;;13.23;7.15;;;22.80;30.00;;;;;;6137532;28;80614;-68
2022/03/18 04:28:31;;;;;;;12.35;7.32;;;22.90;29.80;;;;;;6137852;28;80602;-69
2022/03/18 04:31:31;;;;;;;11.60;6.90;;;22.90;29.60;;;;;;6144025;28;81316;-69
2022/03/18 04:34:32;;;;;;;15.68;8.43;;;23.00;29.40;;;;;;6137895;28;80757;-69
2022/03/18 04:37:32;;;;;;;13.27;7.45;;;23.00;29.20;;;;;;6154992;28;80851;-67
2022/03/18 04:40:33;;;;;;;12.45;6.75;;;23.00;29.10;;;;;;6162213;28;80608;-71
2022/03/18 04:43:33;;;;;;;9.95;5.85;;;23.10;29.30;;;;;;6164208;28;80422;-69
2022/03/18 04:46:34;;;;;;;11.18;6.78;;;23.10;29.30;;;;;;6161021;28;80942;-69
2022/03/18 04:49:34;;;;;;;9.57;6.47;;;23.20;29.40;;;;;;6155358;28;80391;-75
2022/03/18 04:52:35;;;;;;;13.55;7.85;;;23.20;29.20;;;;;;6158875;28;80951;-71
2022/03/18 04:55:35;;;;;;;13.75;7.45;;;23.30;28.90;;;;;;6146372;28;80590;-69
2022/03/18 04:58:36;;;;;;;11.98;6.75;;;23.30;28.70;;;;;;6155049;28;81611;-68
2022/03/18 05:01:37;;;;;;;13.02;7.13;;;23.30;28.60;;;;;;6141720;28;80353;-72
2022/03/18 05:04:38;;;;;;;15.45;8.85;;;23.30;28.50;;;;;;6137719;28;80591;-71
2022/03/18 05:07:40;;;;;;;15.30;9.27;;;23.40;28.80;;;;;;6145764;28;80482;-73
2022/03/18 05:10:40;;;;;;;16.00;9.07;;;23.40;28.80;;;;;;6161440;28;80278;-72
2022/03/18 05:13:42;;;;;;;16.63;8.88;;;23.40;29.00;;;;;;6161651;28;80828;-71
2022/03/18 05:16:42;;;;;;;19.27;9.73;;;23.50;28.90;;;;;;6159604;28;81731;-70
2022/03/18 05:19:43;;;;;;;17.55;7.90;;;23.50;29.00;;;;;;6161422;28;80305;-70
2022/03/18 05:22:45;;;;;;;14.40;8.35;;;23.50;29.20;;;;;;6161176;28;80380;-71
2022/03/18 05:25:45;;;;;;;13.93;8.18;;;23.50;29.30;;;;;;6160395;28;82531;-71
2022/03/18 05:28:46;;;;;;;13.65;7.63;;;23.60;29.20;;;;;;6160671;28;81023;-69
2022/03/18 05:31:46;;;;;;;14.23;7.65;;;23.60;29.10;;;;;;6159564;28;80441;-70
2022/03/18 05:34:47;;;;;;;14.25;6.78;;;23.60;28.90;;;;;;6160935;28;80759;-75
2022/03/18 05:37:48;;;;;;;11.10;6.38;;;23.60;28.70;;;;;;6160904;28;81694;-75
2022/03/18 05:40:51;;;;;;;15.52;7.13;;;23.60;28.60;;;;;;6145254;28;80780;-77
2022/03/18 05:43:51;;;;;;;11.32;7.00;;;23.60;28.60;;;;;;6150761;28;80069;-73
2022/03/18 05:46:52;;;;;;;12.63;7.00;;;23.60;29.20;;;;;;6145723;28;80494;-73
2022/03/18 05:49:52;;;;;;;12.27;6.53;;;23.70;29.40;;;;;;6136441;28;81275;-72
2022/03/18 05:52:54;;;;;;;13.27;7.13;;;23.70;29.70;;;;;;6157909;28;80694;-73
2022/03/18 05:59:13;;;;;;;16.08;8.18;;;23.70;29.20;;;;;;6134604;28;81333;-74
2022/03/18 06:02:14;;;;;;;15.02;8.43;;;23.60;28.60;;;;;;6145617;28;81470;-74
2022/03/18 06:05:15;;;;;;;14.80;8.48;;;23.60;28.30;;;;;;6155305;28;80328;-73
2022/03/18 06:11:54;;;;;;;25.92;9.85;;;23.40;27.60;;;;;;6154415;28;80859;-74
2022/03/18 06:14:55;;;;;;;16.60;9.30;;;23.40;27.50;;;;;;6136330;28;80538;-73
2022/03/18 06:17:55;;;;;;;18.52;9.52;;;23.30;27.40;;;;;;6151815;28;80437;-72
2022/03/18 06:20:56;;;;;;;20.17;9.45;;;23.20;27.30;;;;;;6155799;28;80192;-74
2022/03/18 06:23:57;;;;;;;23.60;10.43;;;23.20;27.20;;;;;;6135802;28;80371;-75
2022/03/18 06:26:57;;;;;;;18.33;9.05;;;23.10;27.10;;;;;;6138386;28;82781;-75
2022/03/18 06:29:58;;;;;;;21.73;9.02;;;23.10;27.00;;;;;;6160237;28;83387;-75
2022/03/18 06:32:58;;;;;;;17.58;9.75;;;23.10;26.90;;;;;;6146682;28;80463;-75
2022/03/18 06:35:59;;;;;;;21.63;9.30;;;23.00;26.50;;;;;;6150619;28;80622;-75
2022/03/18 06:38:59;;;;;;;18.60;9.13;;;23.00;26.50;;;;;;6160079;28;80424;-74
2022/03/18 06:42:01;;;;;;;17.17;9.35;;;23.00;26.50;;;;;;6160091;28;80528;-76
2022/03/18 06:45:02;;;;;;;25.23;10.02;;;22.90;26.40;;;;;;6155421;28;81373;-76
2022/03/18 06:48:03;;;;;;;21.10;9.90;;;22.90;26.20;;;;;;6137491;28;83084;-74
2022/03/18 06:51:03;;;;;;;19.58;10.73;;;22.90;26.30;;;;;;6159343;28;82757;-73
2022/03/18 06:54:04;;;;;;;28.52;11.10;;;22.80;26.30;;;;;;6154563;28;83331;-75
2022/03/18 06:57:04;;;;;;;17.70;9.73;;;22.80;26.20;;;;;;6132089;28;82802;-74
2022/03/18 07:00:06;;;;;;;16.45;9.82;;;22.70;26.00;;;;;;6145703;28;83377;-73
2022/03/18 07:03:06;;;;;;;15.85;8.90;;;22.70;26.10;;;;;;6152480;28;80656;-73
2022/03/18 07:06:07;;;;;;;18.38;10.00;;;22.70;26.00;;;;;;6151890;28;80303;-73
2022/03/18 07:09:07;;;;;;;13.88;8.45;;;22.70;26.00;;;;;;6154134;28;82867;-74
2022/03/18 07:12:08;;;;;;;17.83;9.43;;;22.60;26.00;;;;;;6159410;28;82919;-77
2022/03/18 07:15:09;;;;;;;19.30;9.70;;;22.60;26.10;;;;;;6157904;28;81417;-75
2022/03/18 07:18:10;;;;;;;18.80;8.77;;;22.60;26.00;;;;;;6150631;28;81018;-76
2022/03/18 07:21:10;;;;;;;26.67;9.73;;;22.60;26.00;;;;;;6159161;28;80456;-76
2022/03/18 07:24:11;;;;;;;21.40;9.73;;;22.60;26.00;;;;;;6159551;28;80166;-77
2022/03/18 07:27:11;;;;;;;19.95;9.38;;;22.60;26.00;;;;;;6157791;28;80378;-76
2022/03/18 07:30:12;;;;;;;29.98;10.50;;;22.50;25.90;;;;;;6138819;28;82122;-76
2022/03/18 07:33:12;;;;;;;18.23;9.65;;;22.50;25.90;;;;;;6155023;28;82967;-75
2022/03/18 07:36:13;;;;;;;21.88;11.20;;;22.50;25.90;;;;;;6158571;28;82957;-75
2022/03/18 07:39:14;;;;;;;18.80;10.98;;;22.50;26.00;;;;;;6146206;28;83060;-75
2022/03/18 07:42:14;;;;;;;23.85;9.85;;;22.50;25.90;;;;;;6134179;28;83040;-75
2022/03/18 07:45:15;;;;;;;31.67;9.98;;;22.50;25.80;;;;;;6142270;28;82955;-75
2022/03/18 07:48:15;;;;;;;20.75;10.07;;;22.50;26.00;;;;;;6148909;28;82839;-75
2022/03/18 07:51:16;;;;;;;21.38;11.95;;;22.50;26.00;;;;;;6131602;28;83235;-74
2022/03/18 07:54:16;;;;;;;28.90;12.77;;;22.50;25.90;;;;;;6143086;28;84355;-74
2022/03/18 07:57:17;;;;;;;35.50;12.40;;;22.50;26.00;;;;;;6157624;28;84332;-75
2022/03/18 08:00:17;;;;;;;26.48;12.52;;;22.50;26.00;;;;;;6152807;28;82797;-75
2022/03/18 08:03:18;;;;;;;22.88;10.88;;;22.50;26.00;;;;;;6145106;28;83947;-75
2022/03/18 08:06:20;;;;;;;29.75;11.43;;;22.60;26.00;;;;;;6145336;28;83129;-74
2022/03/18 08:09:20;;;;;;;22.15;11.00;;;22.60;26.10;;;;;;6148188;28;83860;-75
2022/03/18 08:12:21;;;;;;;22.52;11.18;;;22.60;25.80;;;;;;6140505;28;83166;-75
2022/03/18 08:15:22;;;;;;;23.48;11.65;;;22.70;25.90;;;;;;6158954;28;83042;-75
2022/03/18 08:18:22;;;;;;;20.77;9.75;;;22.70;25.90;;;;;;6158873;28;83021;-75
2022/03/18 08:21:23;;;;;;;30.23;10.55;;;22.80;25.80;;;;;;6160606;28;82927;-75
2022/03/18 08:24:23;;;;;;;25.23;10.25;;;22.90;25.60;;;;;;6159724;28;83124;-75
2022/03/18 08:27:24;;;;;;;16.83;10.70;;;22.90;25.40;;;;;;6145570;28;83159;-75
2022/03/18 08:30:24;;;;;;;16.30;9.70;;;23.00;25.40;;;;;;6154410;28;83058;-76
2022/03/18 08:33:26;;;;;;;19.02;9.45;;;23.10;25.30;;;;;;6143948;28;83380;-75
2022/03/18 08:36:26;;;;;;;17.38;9.88;;;23.10;25.20;;;;;;6153122;28;80730;-75
2022/03/18 08:39:27;;;;;;;16.08;9.23;;;23.20;25.10;;;;;;6162136;28;80853;-75
2022/03/18 08:42:27;;;;;;;18.30;9.00;;;23.30;25.10;;;;;;6148077;28;80882;-75
2022/03/18 08:45:28;;;;;;;17.58;9.15;;;23.40;25.10;;;;;;6162183;28;80793;-75
2022/03/18 08:48:28;;;;;;;21.30;9.75;;;23.40;25.10;;;;;;6162168;28;81182;-74
2022/03/18 08:51:29;;;;;;;18.27;9.68;;;23.50;25.10;;;;;;6138744;28;80533;-74
2022/03/18 08:54:29;;;;;;;15.90;8.95;;;23.50;25.00;;;;;;6146252;28;81912;-75
2022/03/18 08:57:33;;;;;;;15.18;8.75;;;23.50;25.00;;;;;;6160004;28;81104;-76
2022/03/18 09:00:34;;;;;;;15.52;7.80;;;23.60;24.90;;;;;;6138189;28;81415;-75
2022/03/18 09:03:35;;;;;;;13.02;8.35;;;23.60;24.90;;;;;;6138670;28;80567;-74
2022/03/18 09:06:35;;;;;;;14.60;8.13;;;23.60;24.90;;;;;;6159167;28;81068;-74
2022/03/18 09:09:36;;;;;;;17.05;8.90;;;23.70;24.90;;;;;;6154638;28;80798;-75
2022/03/18 09:12:36;;;;;;;13.35;8.80;;;23.70;24.90;;;;;;6161621;28;80644;-74
2022/03/18 09:15:37;;;;;;;15.68;8.18;;;23.70;24.90;;;;;;6153274;28;81714;-74
2022/03/18 09:18:37;;;;;;;20.73;8.90;;;23.70;24.90;;;;;;6156671;28;81570;-74
2022/03/18 09:21:38;;;;;;;17.17;8.88;;;23.80;24.90;;;;;;6151559;28;80733;-74
2022/03/18 09:24:38;;;;;;;13.82;8.20;;;23.80;24.90;;;;;;6143962;28;80433;-74
2022/03/18 09:27:40;;;;;;;11.65;7.80;;;23.80;24.80;;;;;;6149224;28;82056;-75
2022/03/18 09:30:41;;;;;;;12.35;7.90;;;23.80;24.80;;;;;;6161790;28;80368;-75
2022/03/18 09:33:42;;;;;;;21.05;9.07;;;23.90;24.80;;;;;;6141585;28;80571;-75
2022/03/18 09:36:42;;;;;;;17.15;8.75;;;23.90;24.80;;;;;;6139878;28;80594;-75
2022/03/18 09:39:43;;;;;;;15.88;8.40;;;23.90;24.80;;;;;;6138765;28;80305;-74
2022/03/18 09:42:43;;;;;;;12.25;7.70;;;23.90;24.70;;;;;;6138145;28;80726;-75
2022/03/18 09:45:44;;;;;;;15.57;8.23;;;24.00;24.80;;;;;;6150243;28;81526;-74
2022/03/18 09:48:44;;;;;;;15.70;7.78;;;23.90;24.70;;;;;;6145100;28;81565;-74
2022/03/18 09:51:45;;;;;;;17.33;8.15;;;24.00;24.70;;;;;;6142500;28;80384;-74
2022/03/18 09:54:59;;;;;;;13.90;8.60;;;24.00;24.70;;;;;;6160896;28;81470;-74
2022/03/18 09:57:59;;;;;;;14.32;8.70;;;24.00;24.60;;;;;;6160577;28;81046;-74
2022/03/18 10:01:01;;;;;;;17.08;8.63;;;24.00;24.60;;;;;;6160672;28;80529;-74
2022/03/18 10:04:02;;;;;;;16.15;9.07;;;24.00;24.50;;;;;;6142949;28;81504;-73
2022/03/18 10:07:03;;;;;;;20.00;9.15;;;24.10;24.60;;;;;;6152491;28;80035;-74
2022/03/18 10:10:04;;;;;;;17.20;9.27;;;24.10;24.60;;;;;;6153862;28;80626;-74
2022/03/18 10:13:06;;;;;;;17.63;8.57;;;24.10;24.60;;;;;;6145541;28;80532;-73
2022/03/18 10:16:07;;;;;;;15.85;9.07;;;24.10;24.60;;;;;;6155356;28;81565;-74
2022/03/18 10:19:07;;;;;;;15.80;8.35;;;24.10;24.50;;;;;;6149532;28;80725;-75
2022/03/18 10:22:10;;;;;;;13.25;8.23;;;24.10;24.50;;;;;;6141184;28;81015;-75
2022/03/18 10:25:10;;;;;;;16.98;9.55;;;24.10;24.50;;;;;;6139436;28;80179;-76
2022/03/18 10:28:11;;;;;;;14.50;8.18;;;24.10;24.50;;;;;;6157704;28;81397;-75
2022/03/18 10:31:11;;;;;;;14.85;8.73;;;24.10;24.50;;;;;;6141204;28;80629;-74
2022/03/18 10:37:31;;;;;;;14.45;8.35;;;24.20;24.60;;;;;;6159771;28;84880;-74
2022/03/18 10:40:32;;;;;;;13.65;7.88;;;24.20;24.60;;;;;;6145134;28;80336;-75
2022/03/18 10:43:32;;;;;;;15.70;8.88;;;24.30;24.60;;;;;;6150760;28;80523;-75
2022/03/18 10:46:33;;;;;;;14.05;8.05;;;24.30;24.60;;;;;;6150623;28;80534;-75
2022/03/18 10:49:33;;;;;;;17.35;8.82;;;24.30;24.60;;;;;;6152595;28;80853;-74
2022/03/18 10:52:34;;;;;;;20.30;8.45;;;24.30;24.50;;;;;;6159580;28;80547;-75
2022/03/18 10:55:36;;;;;;;14.00;8.75;;;24.30;24.50;;;;;;6160213;28;80606;-75
2022/03/18 10:58:38;;;;;;;13.07;7.80;;;24.30;24.50;;;;;;6137122;28;81746;-76
2022/03/18 11:01:38;;;;;;;19.17;9.07;;;24.30;24.40;;;;;;6138166;28;80479;-75
2022/03/18 11:04:41;;;;;;;16.08;8.88;;;24.40;24.40;;;;;;6159857;28;81238;-75
2022/03/18 11:07:41;;;;;;;17.58;8.63;;;24.30;24.40;;;;;;6158887;28;80532;-75
2022/03/18 11:14:03;;;;;;;16.88;9.18;;;24.40;24.40;;;;;;6134939;28;80669;-75
2022/03/18 11:17:04;;;;;;;17.63;8.77;;;24.40;24.30;;;;;;6148381;28;80506;-76
2022/03/18 11:20:05;;;;;;;17.48;8.77;;;24.40;24.40;;;;;;6135296;28;80446;-76
2022/03/18 11:23:05;;;;;;;14.80;8.45;;;24.40;24.40;;;;;;6150947;28;80436;-76
2022/03/18 11:26:06;;;;;;;15.80;8.45;;;24.40;24.40;;;;;;6135983;28;80425;-77
2022/03/18 11:29:07;;;;;;;15.38;8.40;;;24.40;24.30;;;;;;6150806;28;80444;-76
2022/03/18 11:32:07;;;;;;;13.75;7.47;;;24.40;24.30;;;;;;6163868;28;80223;-76
2022/03/18 11:35:08;;;;;;;15.57;7.35;;;24.40;24.30;;;;;;6163255;28;82019;-75
2022/03/18 11:38:08;;;;;;;19.73;8.00;;;24.40;24.30;;;;;;6163766;28;80455;-79
2022/03/18 11:41:09;;;;;;;15.32;8.55;;;24.40;24.30;;;;;;6162759;28;81116;-75
2022/03/18 11:44:09;;;;;;;13.25;7.88;;;24.50;24.30;;;;;;6159720;28;80444;-75
2022/03/18 11:47:10;;;;;;;14.70;7.75;;;24.50;24.40;;;;;;6163786;28;81008;-76
2022/03/18 11:50:10;;;;;;;12.70;8.05;;;24.50;24.40;;;;;;6157449;28;80746;-74
2022/03/18 11:53:11;;;;;;;17.17;8.57;;;24.50;24.40;;;;;;6155233;28;80430;-74
2022/03/18 11:56:11;;;;;;;16.98;8.43;;;24.50;24.50;;;;;;6150462;28;80653;-74
2022/03/18 11:59:12;;;;;;;14.43;7.53;;;24.50;24.40;;;;;;6153163;28;80698;-74
2022/03/18 12:02:12;;;;;;;24.35;7.32;;;24.60;24.40;;;;;;6151413;28;80458;-74
2022/03/18 12:05:13;;;;;;;14.25;6.78;;;24.60;24.40;;;;;;6138826;28;80214;-75
2022/03/18 12:08:14;;;;;;;17.83;7.68;;;24.60;24.40;;;;;;6138104;28;82325;-74
2022/03/18 12:11:15;;;;;;;12.55;7.25;;;24.60;24.40;;;;;;6138078;28;81648;-76
2022/03/18 12:14:15;;;;;;;11.25;7.35;;;24.60;24.40;;;;;;6159901;28;80420;-76
2022/03/18 12:17:16;;;;;;;14.30;7.50;;;24.60;24.40;;;;;;6162349;28;80796;-76
2022/03/18 12:20:17;;;;;;;13.00;7.43;;;24.60;24.50;;;;;;6162754;28;81741;-76
2022/03/18 12:23:18;;;;;;;18.67;8.50;;;24.70;25.00;;;;;;6161754;28;80667;-76
2022/03/18 12:26:18;;;;;;;16.23;8.15;;;24.60;24.60;;;;;;6160644;28;80375;-75
2022/03/18 12:29:19;;;;;;;18.48;7.72;;;24.60;24.50;;;;;;6138743;28;80927;-76
2022/03/18 12:32:19;;;;;;;16.70;7.38;;;24.70;24.60;;;;;;6139087;28;80848;-76
2022/03/18 12:35:20;;;;;;;16.42;8.65;;;24.70;24.50;;;;;;6138902;28;80328;-76
2022/03/18 12:38:21;;;;;;;10.45;7.13;;;24.70;24.50;;;;;;6141429;28;80998;-76
2022/03/18 12:41:22;;;;;;;10.65;7.25;;;24.70;24.60;;;;;;6137714;28;80058;-76
2022/03/18 12:44:22;;;;;;;11.00;7.40;;;24.70;24.60;;;;;;6138444;28;80480;-76
2022/03/18 12:47:23;;;;;;;15.43;7.53;;;24.70;24.60;;;;;;6138225;28;80319;-76
2022/03/18 12:50:24;;;;;;;10.20;6.85;;;24.70;24.60;;;;;;6155808;28;80057;-75
2022/03/18 12:53:24;;;;;;;12.48;6.90;;;24.70;24.50;;;;;;6151445;28;80727;-74
2022/03/18 12:56:29;;;;;;;10.03;6.60;;;24.70;24.50;;;;;;6135187;28;82745;-74
2022/03/18 12:59:33;;;;;;;12.20;6.78;;;24.70;24.50;;;;;;6160066;28;83608;-71
2022/03/18 13:02:34;;;;;;;12.20;7.05;;;24.60;24.50;;;;;;6161746;28;80975;-72
2022/03/18 13:05:35;;;;;;;10.90;7.18;;;24.40;24.70;;;;;;6143024;28;81228;-71
2022/03/18 13:08:36;;;;;;;10.60;6.78;;;24.40;24.70;;;;;;6156534;28;80699;-72
2022/03/18 13:11:39;;;;;;;14.80;7.82;;;24.20;24.70;;;;;;6162363;28;80681;-73
2022/03/18 13:14:42;;;;;;;14.63;7.47;;;24.10;24.20;;;;;;6151187;28;80917;-72
2022/03/18 13:17:42;;;;;;;8.30;6.15;;;24.00;24.70;;;;;;6162230;28;80697;-73
2022/03/18 13:20:43;;;;;;;12.95;6.95;;;24.00;24.50;;;;;;6156061;28;81232;-72
2022/03/18 13:23:44;;;;;;;13.90;7.00;;;23.90;24.20;;;;;;6155460;28;80197;-72
2022/03/18 13:26:45;;;;;;;15.02;7.25;;;23.90;24.40;;;;;;6150602;28;81066;-73
2022/03/18 13:33:16;;;;;;;11.68;6.15;;;23.70;24.10;;;;;;6128376;28;81603;-75
2022/03/18 13:36:16;;;;;;;10.35;7.13;;;23.70;24.20;;;;;;6148320;28;80929;-73
2022/03/18 13:39:17;;;;;;;11.43;6.82;;;23.60;23.80;;;;;;6144767;28;80259;-72
2022/03/18 13:42:17;;;;;;;12.27;6.82;;;23.50;23.50;;;;;;6158784;28;81157;-71
2022/03/18 13:45:18;;;;;;;9.95;6.95;;;23.50;24.00;;;;;;6155178;28;80929;-69
2022/03/18 13:48:19;;;;;;;11.75;7.07;;;23.40;23.40;;;;;;6146746;28;80666;-72
2022/03/18 13:51:20;;;;;;;11.55;6.43;;;23.40;23.50;;;;;;6150442;28;80584;-72
2022/03/18 13:54:21;;;;;;;11.82;7.22;;;23.40;23.70;;;;;;6152250;28;80576;-71
2022/03/18 13:57:21;;;;;;;10.50;6.72;;;23.40;23.60;;;;;;6145978;28;80335;-72
2022/03/18 14:00:22;;;;;;;11.35;7.00;;;23.30;23.40;;;;;;6149048;28;80751;-71
2022/03/18 14:03:22;;;;;;;16.10;6.40;;;23.20;23.30;;;;;;6151449;28;80770;-71
2022/03/18 14:06:23;;;;;;;10.38;5.90;;;23.20;23.50;;;;;;6146240;28;81494;-71
2022/03/18 14:09:23;;;;;;;12.70;6.75;;;23.20;23.50;;;;;;6161372;28;80187;-72
2022/03/18 14:12:24;;;;;;;10.80;7.20;;;23.20;23.60;;;;;;6158305;28;80119;-68
2022/03/18 14:15:24;;;;;;;11.93;7.28;;;23.20;23.40;;;;;;6161387;28;80918;-70
2022/03/18 14:18:25;;;;;;;12.20;7.05;;;23.00;23.70;;;;;;6141096;28;81107;-70
2022/03/18 14:21:25;;;;;;;10.50;6.25;;;23.10;23.60;;;;;;6144739;28;80422;-74
2022/03/18 14:24:26;;;;;;;10.23;6.65;;;23.10;24.10;;;;;;6159794;28;80675;-70
2022/03/18 14:27:26;;;;;;;15.77;7.03;;;23.10;24.30;;;;;;6140659;28;80240;-70
2022/03/18 14:30:27;;;;;;;13.52;6.53;;;23.10;24.10;;;;;;6155157;28;80654;-70
2022/03/18 14:33:29;;;;;;;50.47;22.77;;;23.20;24.10;;;;;;6159960;28;80267;-70
2022/03/18 14:36:31;;;;;;;97.78;44.58;;;23.20;24.20;;;;;;6157386;28;83311;-70
2022/03/18 14:39:32;;;;;;;80.38;37.45;;;23.20;24.30;;;;;;6155978;28;83124;-68
2022/03/18 14:42:32;;;;;;;213.32;91.82;;;23.20;24.30;;;;;;6156880;28;83042;-69
2022/03/18 14:45:33;;;;;;;177.10;76.15;;;23.20;24.30;;;;;;6142935;28;82988;-70
2022/03/18 14:48:34;;;;;;;118.55;54.70;;;23.30;24.20;;;;;;6133701;28;83268;-68
2022/03/18 14:51:34;;;;;;;115.35;48.83;;;23.20;24.20;;;;;;6156639;28;82947;-68
2022/03/18 14:57:54;;;;;;;70.60;31.58;;;23.20;24.20;;;;;;6156792;28;83149;-70
2022/03/18 15:00:55;;;;;;;64.82;26.17;;;23.20;24.20;;;;;;6155402;28;82947;-69
2022/03/18 15:03:59;;;;;;;47.75;22.15;;;23.20;24.00;;;;;;6157196;28;83308;-69
2022/03/18 15:07:00;;;;;;;43.90;19.90;;;23.20;24.00;;;;;;6158347;28;83288;-70
2022/03/18 15:10:00;;;;;;;35.72;16.23;;;23.20;24.00;;;;;;6160841;28;83022;-69
2022/03/18 15:13:01;;;;;;;29.13;14.25;;;23.10;24.00;;;;;;6158498;28;83201;-70
2022/03/18 15:16:01;;;;;;;26.23;13.50;;;23.10;24.00;;;;;;6163937;28;83262;-70
2022/03/18 15:19:02;;;;;;;21.10;11.63;;;23.10;24.20;;;;;;6150970;28;83721;-69
2022/03/18 15:22:02;;;;;;;26.30;11.30;;;23.10;24.00;;;;;;6162258;28;84172;-69
2022/03/18 15:25:03;;;;;;;23.80;10.48;;;23.10;24.10;;;;;;6164198;28;89648;-69
2022/03/18 15:28:04;;;;;;;20.75;10.40;;;23.10;24.30;;;;;;6156048;28;82999;-69
2022/03/18 15:31:05;;;;;;;13.93;8.45;;;23.10;24.50;;;;;;6164485;28;82820;-69
2022/03/18 15:34:08;;;;;;;17.45;8.48;;;23.10;24.20;;;;;;6155239;28;82707;-68
2022/03/18 15:37:09;;;;;;;17.35;8.55;;;23.10;25.00;;;;;;6143573;28;80393;-71
2022/03/18 15:40:11;;;;;;;13.18;7.35;;;23.10;24.50;;;;;;6143282;28;80551;-68
2022/03/18 15:43:14;;;;;;;11.80;7.47;;;23.10;24.30;;;;;;6146333;28;82146;-73
2022/03/18 15:46:18;;;;;;;14.90;7.50;;;23.10;24.30;;;;;;6159471;28;80946;-70
2022/03/18 15:49:19;;;;;;;12.40;7.00;;;23.00;24.10;;;;;;6166687;28;80638;-69
2022/03/18 15:52:20;;;;;;;13.23;7.18;;;22.90;24.20;;;;;;6156649;28;80775;-70
2022/03/18 15:55:20;;;;;;;11.48;7.13;;;22.90;24.30;;;;;;6143357;28;80229;-69
2022/03/18 15:58:21;;;;;;;13.80;6.68;;;22.90;24.30;;;;;;6143869;28;80577;-71
2022/03/18 16:01:21;;;;;;;14.43;7.00;;;22.90;24.60;;;;;;6144228;28;80328;-72